sensor_id;sensor_type;location;lat;lon;timestamp;pressure;altitude;pressure_sealevel;temperature;humidity
73671;BME280;61968;48.178;11.566;2023-07-13T00:02:11;95750.16;;;20.83;45.28
73671;BME280;61968;48.178;11.566;2023-07-13T00:04:38;95743.00;;;20.79;45.50
73671;BME280;61968;48.178;11.566;2023-07-13T00:07:05;95730.94;;;20.76;45.07
73671;BME280;61968;48.178;11.566;2023-07-13T00:09:32;95739.72;;;20.82;45.33
73671;BME280;61968;48.178;11.566;2023-07-13T00:11:58;95729.81;;;20.77;45.28
73671;BME280;61968;48.178;11.566;2023-07-13T00:14:26;95735.31;;;20.72;45.47
73671;BME280;61968;48.178;11.566;2023-07-13T00:16:53;95723.47;;;20.73;45.61
73671;BME280;61968;48.178;11.566;2023-07-13T00:19:20;95719.06;;;20.77;45.20
73671;BME280;61968;48.178;11.566;2023-07-13T00:21:48;95717.38;;;20.68;45.47
73671;BME280;61968;48.178;11.566;2023-07-13T00:24:17;95728.03;;;20.73;45.56
73671;BME280;61968;48.178;11.566;2023-07-13T00:26:48;95736.72;;;20.83;45.54
73671;BME280;61968;48.178;11.566;2023-07-13T00:29:15;95715.53;;;20.96;44.60
73671;BME280;61968;48.178;11.566;2023-07-13T00:31:41;95707.78;;;20.94;45.05
73671;BME280;61968;48.178;11.566;2023-07-13T00:34:09;95723.59;;;20.96;44.88
73671;BME280;61968;48.178;11.566;2023-07-13T00:36:35;95733.41;;;20.73;45.34
73671;BME280;61968;48.178;11.566;2023-07-13T00:39:03;95733.22;;;20.69;45.63
73671;BME280;61968;48.178;11.566;2023-07-13T00:41:31;95733.22;;;20.69;45.46
73671;BME280;61968;48.178;11.566;2023-07-13T00:43:57;95736.97;;;20.68;45.00
73671;BME280;61968;48.178;11.566;2023-07-13T00:46:26;95735.31;;;20.72;45.11
73671;BME280;61968;48.178;11.566;2023-07-13T00:48:55;95737.03;;;20.82;44.60
73671;BME280;61968;48.178;11.566;2023-07-13T00:51:27;95729.69;;;20.88;44.54
73671;BME280;61968;48.178;11.566;2023-07-13T00:53:57;95733.84;;;20.80;44.75
73671;BME280;61968;48.178;11.566;2023-07-13T00:56:26;95733.25;;;20.83;44.72
73671;BME280;61968;48.178;11.566;2023-07-13T00:58:55;95743.22;;;20.82;44.16
73671;BME280;61968;48.178;11.566;2023-07-13T01:01:22;95744.63;;;20.61;45.07
73671;BME280;61968;48.178;11.566;2023-07-13T01:03:49;95731.19;;;20.61;45.23
73671;BME280;61968;48.178;11.566;2023-07-13T01:06:16;95721.44;;;20.65;45.15
73671;BME280;61968;48.178;11.566;2023-07-13T01:08:43;95714.88;;;20.71;45.05
73671;BME280;61968;48.178;11.566;2023-07-13T01:11:10;95719.03;;;20.82;44.54
73671;BME280;61968;48.178;11.566;2023-07-13T01:13:37;95708.31;;;20.77;44.83
73671;BME280;61968;48.178;11.566;2023-07-13T01:16:13;95704.00;;;20.81;44.56
73671;BME280;61968;48.178;11.566;2023-07-13T01:18:41;95695.22;;;20.90;43.96
73671;BME280;61968;48.178;11.566;2023-07-13T01:21:09;95695.94;;;20.81;44.56
73671;BME280;61968;48.178;11.566;2023-07-13T01:23:35;95698.44;;;20.92;44.24
73671;BME280;61968;48.178;11.566;2023-07-13T01:26:02;95691.47;;;20.91;44.23
73671;BME280;61968;48.178;11.566;2023-07-13T01:28:28;95689.84;;;20.90;44.16
73671;BME280;61968;48.178;11.566;2023-07-13T01:30:57;95682.09;;;20.88;44.08
73671;BME280;61968;48.178;11.566;2023-07-13T01:33:25;95688.38;;;20.83;44.15
73671;BME280;61968;48.178;11.566;2023-07-13T01:35:51;95687.69;;;20.92;44.11
73671;BME280;61968;48.178;11.566;2023-07-13T01:38:21;95687.69;;;20.92;44.29
73671;BME280;61968;48.178;11.566;2023-07-13T01:40:49;95692.38;;;21.00;43.95
73671;BME280;61968;48.178;11.566;2023-07-13T01:43:15;95705.31;;;21.12;43.57
73671;BME280;61968;48.178;11.566;2023-07-13T01:45:42;95703.63;;;21.29;43.08
73671;BME280;61968;48.178;11.566;2023-07-13T01:48:09;95705.44;;;21.20;43.63
73671;BME280;61968;48.178;11.566;2023-07-13T01:50:36;95705.31;;;20.98;44.52
73671;BME280;61968;48.178;11.566;2023-07-13T01:53:03;95718.34;;;20.91;44.75
73671;BME280;61968;48.178;11.566;2023-07-13T01:55:31;95714.56;;;20.92;44.98
73671;BME280;61968;48.178;11.566;2023-07-13T01:57:58;95718.94;;;20.88;44.44
73671;BME280;61968;48.178;11.566;2023-07-13T02:00:24;95722.34;;;20.93;44.28
73671;BME280;61968;48.178;11.566;2023-07-13T02:02:51;95713.38;;;20.98;44.48
73671;BME280;61968;48.178;11.566;2023-07-13T02:05:18;95722.75;;;21.14;44.00
73671;BME280;61968;48.178;11.566;2023-07-13T02:07:45;95713.47;;;21.06;44.27
73671;BME280;61968;48.178;11.566;2023-07-13T02:10:12;95715.38;;;21.06;43.74
73671;BME280;61968;48.178;11.566;2023-07-13T02:12:40;95718.75;;;20.84;44.48
73671;BME280;61968;48.178;11.566;2023-07-13T02:15:08;95720.50;;;20.75;44.70
73671;BME280;61968;48.178;11.566;2023-07-13T02:17:35;95720.13;;;20.81;44.78
73671;BME280;61968;48.178;11.566;2023-07-13T02:20:02;95718.50;;;20.80;44.67
73671;BME280;61968;48.178;11.566;2023-07-13T02:22:29;95718.03;;;20.78;44.78
73671;BME280;61968;48.178;11.566;2023-07-13T02:24:56;95727.69;;;20.79;44.79
73671;BME280;61968;48.178;11.566;2023-07-13T02:27:23;95729.03;;;20.77;44.95
73671;BME280;61968;48.178;11.566;2023-07-13T02:29:51;95732.63;;;20.72;45.00
73671;BME280;61968;48.178;11.566;2023-07-13T02:32:17;95734.78;;;20.70;45.46
73671;BME280;61968;48.178;11.566;2023-07-13T02:34:44;95741.34;;;20.64;45.25
73671;BME280;61968;48.178;11.566;2023-07-13T02:37:11;95742.44;;;20.63;45.78
73671;BME280;61968;48.178;11.566;2023-07-13T02:39:38;95750.66;;;20.53;45.57
73671;BME280;61968;48.178;11.566;2023-07-13T02:42:05;95762.16;;;20.39;45.78
73671;BME280;61968;48.178;11.566;2023-07-13T02:44:32;95768.97;;;20.13;46.83
73671;BME280;61968;48.178;11.566;2023-07-13T02:46:59;95767.03;;;20.18;47.08
73671;BME280;61968;48.178;11.566;2023-07-13T02:49:26;95773.63;;;20.26;46.04
73671;BME280;61968;48.178;11.566;2023-07-13T02:51:52;95777.91;;;20.08;47.04
73671;BME280;61968;48.178;11.566;2023-07-13T02:54:19;95780.34;;;20.05;47.08
73671;BME280;61968;48.178;11.566;2023-07-13T02:56:45;95784.75;;;19.95;46.84
73671;BME280;61968;48.178;11.566;2023-07-13T02:59:12;95780.91;;;19.64;47.82
73671;BME280;61968;48.178;11.566;2023-07-13T03:01:38;95776.22;;;19.50;48.54
73671;BME280;61968;48.178;11.566;2023-07-13T03:04:07;95777.03;;;19.51;48.11
73671;BME280;61968;48.178;11.566;2023-07-13T03:06:34;95771.81;;;19.36;48.04
73671;BME280;61968;48.178;11.566;2023-07-13T03:09:01;95772.66;;;19.31;48.15
73671;BME280;61968;48.178;11.566;2023-07-13T03:11:27;95772.72;;;19.50;47.62
73671;BME280;61968;48.178;11.566;2023-07-13T03:13:54;95770.75;;;19.61;47.74
73671;BME280;61968;48.178;11.566;2023-07-13T03:16:21;95784.75;;;19.77;47.42
73671;BME280;61968;48.178;11.566;2023-07-13T03:18:48;95781.34;;;19.71;47.19
73671;BME280;61968;48.178;11.566;2023-07-13T03:21:16;95786.88;;;19.56;48.00
73671;BME280;61968;48.178;11.566;2023-07-13T03:23:42;95792.59;;;19.73;47.09
73671;BME280;61968;48.178;11.566;2023-07-13T03:26:11;95796.56;;;19.76;46.93
73671;BME280;61968;48.178;11.566;2023-07-13T03:28:38;95794.53;;;19.86;47.37
73671;BME280;61968;48.178;11.566;2023-07-13T03:31:06;95787.44;;;19.77;46.73
73671;BME280;61968;48.178;11.566;2023-07-13T03:33:33;95785.91;;;19.70;47.16
73671;BME280;61968;48.178;11.566;2023-07-13T03:36:00;95784.00;;;19.71;45.86
73671;BME280;61968;48.178;11.566;2023-07-13T03:38:27;95781.47;;;19.61;46.31
73671;BME280;61968;48.178;11.566;2023-07-13T03:40:54;95797.94;;;19.73;46.30
73671;BME280;61968;48.178;11.566;2023-07-13T03:43:20;95803.09;;;19.69;47.10
73671;BME280;61968;48.178;11.566;2023-07-13T03:45:47;95797.66;;;19.75;46.21
73671;BME280;61968;48.178;11.566;2023-07-13T03:48:14;95801.16;;;19.75;46.34
73671;BME280;61968;48.178;11.566;2023-07-13T03:50:41;95795.25;;;19.73;45.78
73671;BME280;61968;48.178;11.566;2023-07-13T03:53:07;95787.00;;;19.69;46.29
73671;BME280;61968;48.178;11.566;2023-07-13T03:55:35;95794.88;;;19.61;45.94
73671;BME280;61968;48.178;11.566;2023-07-13T03:58:23;95790.66;;;19.55;46.27
73671;BME280;61968;48.178;11.566;2023-07-13T04:00:51;95796.28;;;19.53;45.98
73671;BME280;61968;48.178;11.566;2023-07-13T04:03:17;95796.59;;;19.52;45.99
73671;BME280;61968;48.178;11.566;2023-07-13T04:05:44;95794.97;;;19.50;46.35
73671;BME280;61968;48.178;11.566;2023-07-13T04:08:11;95805.44;;;19.47;45.38
73671;BME280;61968;48.178;11.566;2023-07-13T04:10:39;95799.34;;;19.41;46.54
73671;BME280;61968;48.178;11.566;2023-07-13T04:13:05;95810.06;;;19.41;45.66
73671;BME280;61968;48.178;11.566;2023-07-13T04:15:32;95804.00;;;19.36;45.76
73671;BME280;61968;48.178;11.566;2023-07-13T04:17:59;95813.75;;;19.26;45.67
73671;BME280;61968;48.178;11.566;2023-07-13T04:20:26;95814.16;;;19.10;45.83
73671;BME280;61968;48.178;11.566;2023-07-13T04:22:52;95819.75;;;19.13;46.65
73671;BME280;61968;48.178;11.566;2023-07-13T04:25:20;95825.06;;;19.18;47.35
73671;BME280;61968;48.178;11.566;2023-07-13T04:27:49;95811.59;;;19.47;46.94
73671;BME280;61968;48.178;11.566;2023-07-13T04:30:16;95819.97;;;19.70;45.83
73671;BME280;61968;48.178;11.566;2023-07-13T04:32:43;95821.91;;;19.88;45.86
73671;BME280;61968;48.178;11.566;2023-07-13T04:35:09;95823.38;;;20.00;45.27
73671;BME280;61968;48.178;11.566;2023-07-13T04:37:36;95827.59;;;20.06;45.63
73671;BME280;61968;48.178;11.566;2023-07-13T04:40:03;95834.66;;;20.21;45.20
73671;BME280;61968;48.178;11.566;2023-07-13T04:42:30;95825.31;;;20.18;45.30
73671;BME280;61968;48.178;11.566;2023-07-13T04:44:57;95835.38;;;20.26;44.83
73671;BME280;61968;48.178;11.566;2023-07-13T04:47:24;95830.59;;;20.42;44.10
73671;BME280;61968;48.178;11.566;2023-07-13T04:49:50;95829.72;;;20.47;43.58
73671;BME280;61968;48.178;11.566;2023-07-13T04:52:17;95833.66;;;20.35;44.23
73671;BME280;61968;48.178;11.566;2023-07-13T04:54:44;95837.72;;;20.33;44.12
73671;BME280;61968;48.178;11.566;2023-07-13T04:57:10;95849.31;;;20.28;44.24
73671;BME280;61968;48.178;11.566;2023-07-13T04:59:37;95841.03;;;20.25;44.12
73671;BME280;61968;48.178;11.566;2023-07-13T05:02:05;95839.09;;;20.30;43.88
73671;BME280;61968;48.178;11.566;2023-07-13T05:04:31;95840.63;;;20.36;43.69
73671;BME280;61968;48.178;11.566;2023-07-13T05:06:58;95851.78;;;20.44;43.55
73671;BME280;61968;48.178;11.566;2023-07-13T05:09:25;95853.88;;;20.47;43.46
73671;BME280;61968;48.178;11.566;2023-07-13T05:11:52;95857.09;;;20.49;43.54
73671;BME280;61968;48.178;11.566;2023-07-13T05:14:18;95858.75;;;20.63;43.33
73671;BME280;61968;48.178;11.566;2023-07-13T05:16:45;95860.34;;;20.64;43.15
73671;BME280;61968;48.178;11.566;2023-07-13T05:19:13;95851.94;;;20.52;43.20
73671;BME280;61968;48.178;11.566;2023-07-13T05:21:39;95853.88;;;20.47;43.74
73671;BME280;61968;48.178;11.566;2023-07-13T05:24:06;95854.56;;;20.38;43.12
73671;BME280;61968;48.178;11.566;2023-07-13T05:26:33;95861.00;;;20.37;44.27
73671;BME280;61968;48.178;11.566;2023-07-13T05:28:59;95852.56;;;20.44;43.73
73671;BME280;61968;48.178;11.566;2023-07-13T05:31:26;95856.06;;;20.63;43.54
73671;BME280;61968;48.178;11.566;2023-07-13T05:33:53;95860.50;;;20.54;42.87
73671;BME280;61968;48.178;11.566;2023-07-13T05:36:21;95863.09;;;20.40;43.52
73671;BME280;61968;48.178;11.566;2023-07-13T05:38:47;95857.09;;;20.49;43.51
73671;BME280;61968;48.178;11.566;2023-07-13T05:41:14;95861.00;;;20.56;42.98
73671;BME280;61968;48.178;11.566;2023-07-13T05:43:40;95866.66;;;20.55;43.25
73671;BME280;61968;48.178;11.566;2023-07-13T05:46:07;95864.50;;;20.57;42.88
73671;BME280;61968;48.178;11.566;2023-07-13T05:48:33;95862.16;;;20.69;43.09
73671;BME280;61968;48.178;11.566;2023-07-13T05:51:00;95865.28;;;20.76;43.08
73671;BME280;61968;48.178;11.566;2023-07-13T05:53:29;95862.34;;;20.78;42.92
73671;BME280;61968;48.178;11.566;2023-07-13T05:55:55;95859.84;;;20.81;42.73
73671;BME280;61968;48.178;11.566;2023-07-13T05:58:22;95863.63;;;20.80;42.74
73671;BME280;61968;48.178;11.566;2023-07-13T06:00:58;95867.44;;;20.74;43.05
73671;BME280;61968;48.178;11.566;2023-07-13T06:03:25;95861.97;;;20.84;42.95
73671;BME280;61968;48.178;11.566;2023-07-13T06:05:52;95865.72;;;20.83;43.20
73671;BME280;61968;48.178;11.566;2023-07-13T06:08:18;95871.97;;;20.79;42.21
73671;BME280;61968;48.178;11.566;2023-07-13T06:10:46;95872.97;;;20.64;43.68
73671;BME280;61968;48.178;11.566;2023-07-13T06:13:12;95877.91;;;20.76;43.07
73671;BME280;61968;48.178;11.566;2023-07-13T06:15:39;95878.94;;;20.80;43.52
73671;BME280;61968;48.178;11.566;2023-07-13T06:18:05;95882.97;;;20.77;43.18
73671;BME280;61968;48.178;11.566;2023-07-13T06:20:33;95885.19;;;20.75;43.26
73671;BME280;61968;48.178;11.566;2023-07-13T06:23:01;95881.19;;;20.92;42.97
73671;BME280;61968;48.178;11.566;2023-07-13T06:25:27;95884.00;;;21.00;42.89
73671;BME280;61968;48.178;11.566;2023-07-13T06:27:55;95887.50;;;21.01;42.61
73671;BME280;61968;48.178;11.566;2023-07-13T06:30:22;95884.53;;;21.02;42.98
73671;BME280;61968;48.178;11.566;2023-07-13T06:32:49;95889.91;;;21.02;42.09
73671;BME280;61968;48.178;11.566;2023-07-13T06:35:15;95892.00;;;21.05;42.79
73671;BME280;61968;48.178;11.566;2023-07-13T06:37:42;95896.28;;;21.06;42.54
73671;BME280;61968;48.178;11.566;2023-07-13T06:40:09;95897.56;;;21.09;42.15
73671;BME280;61968;48.178;11.566;2023-07-13T06:42:36;95906.75;;;21.08;42.10
73671;BME280;61968;48.178;11.566;2023-07-13T06:45:06;95904.91;;;21.03;41.70
73671;BME280;61968;48.178;11.566;2023-07-13T06:47:32;95912.72;;;21.05;41.91
73671;BME280;61968;48.178;11.566;2023-07-13T06:49:59;95909.91;;;21.10;41.68
73671;BME280;61968;48.178;11.566;2023-07-13T06:52:25;95919.16;;;21.04;41.23
73671;BME280;61968;48.178;11.566;2023-07-13T06:54:52;95919.59;;;20.92;41.08
73671;BME280;61968;48.178;11.566;2023-07-13T06:57:18;95917.06;;;21.01;41.24
73671;BME280;61968;48.178;11.566;2023-07-13T06:59:45;95920.50;;;20.88;41.10
73671;BME280;61968;48.178;11.566;2023-07-13T07:02:13;95922.16;;;20.83;41.05
73671;BME280;61968;48.178;11.566;2023-07-13T07:04:39;95918.75;;;20.97;40.85
73671;BME280;61968;48.178;11.566;2023-07-13T07:07:06;95929.03;;;21.08;40.60
73671;BME280;61968;48.178;11.566;2023-07-13T07:09:32;95935.44;;;20.94;40.43
73671;BME280;61968;48.178;11.566;2023-07-13T07:11:59;95940.31;;;20.92;39.63
73671;BME280;61968;48.178;11.566;2023-07-13T07:14:25;95942.06;;;20.39;39.74
73671;BME280;61968;48.178;11.566;2023-07-13T07:16:52;95936.31;;;20.27;41.29
73671;BME280;61968;48.178;11.566;2023-07-13T07:19:20;95934.34;;;20.57;40.01
73671;BME280;61968;48.178;11.566;2023-07-13T07:21:46;95935.19;;;20.71;40.03
73671;BME280;61968;48.178;11.566;2023-07-13T07:24:13;95921.16;;;20.79;39.98
73671;BME280;61968;48.178;11.566;2023-07-13T07:26:41;95918.50;;;20.74;39.16
73671;BME280;61968;48.178;11.566;2023-07-13T07:29:07;95924.13;;;20.78;39.19
73671;BME280;61968;48.178;11.566;2023-07-13T07:31:34;95934.72;;;20.88;39.44
73671;BME280;61968;48.178;11.566;2023-07-13T07:34:02;95941.09;;;20.92;37.94
73671;BME280;61968;48.178;11.566;2023-07-13T07:36:30;95937.09;;;20.52;36.89
73671;BME280;61968;48.178;11.566;2023-07-13T07:38:56;95934.38;;;19.85;37.62
73671;BME280;61968;48.178;11.566;2023-07-13T07:41:23;95932.47;;;19.85;38.98
73671;BME280;61968;48.178;11.566;2023-07-13T07:43:49;95948.53;;;19.90;39.42
73671;BME280;61968;48.178;11.566;2023-07-13T07:46:16;95949.38;;;20.10;38.52
73671;BME280;61968;48.178;11.566;2023-07-13T07:48:43;95957.63;;;20.18;38.12
73671;BME280;61968;48.178;11.566;2023-07-13T07:51:09;95965.69;;;20.18;38.50
73671;BME280;61968;48.178;11.566;2023-07-13T07:53:37;95961.66;;;20.40;38.17
73671;BME280;61968;48.178;11.566;2023-07-13T07:56:03;95967.59;;;20.13;38.57
73671;BME280;61968;48.178;11.566;2023-07-13T07:58:30;95966.00;;;20.12;38.97
73671;BME280;61968;48.178;11.566;2023-07-13T08:01:02;95959.50;;;19.94;39.00
73671;BME280;61968;48.178;11.566;2023-07-13T08:03:29;95963.28;;;19.64;39.38
73671;BME280;61968;48.178;11.566;2023-07-13T08:05:55;95977.09;;;19.76;39.78
73671;BME280;61968;48.178;11.566;2023-07-13T08:08:22;95977.88;;;20.06;39.70
73671;BME280;61968;48.178;11.566;2023-07-13T08:10:49;95975.97;;;20.35;39.12
73671;BME280;61968;48.178;11.566;2023-07-13T08:13:16;95985.81;;;20.21;39.72
73671;BME280;61968;48.178;11.566;2023-07-13T08:15:42;95984.13;;;20.25;39.06
73671;BME280;61968;48.178;11.566;2023-07-13T08:18:09;95986.88;;;20.20;39.79
73671;BME280;61968;48.178;11.566;2023-07-13T08:20:36;95992.34;;;20.34;39.01
73671;BME280;61968;48.178;11.566;2023-07-13T08:23:03;95986.22;;;20.52;38.97
73671;BME280;61968;48.178;11.566;2023-07-13T08:25:30;95989.22;;;20.51;38.81
73671;BME280;61968;48.178;11.566;2023-07-13T08:27:57;95987.34;;;20.27;36.31
73671;BME280;61968;48.178;11.566;2023-07-13T08:30:24;95991.53;;;19.80;36.31
73671;BME280;61968;48.178;11.566;2023-07-13T08:32:50;95986.75;;;19.77;38.06
73671;BME280;61968;48.178;11.566;2023-07-13T08:35:17;95999.38;;;20.06;37.39
73671;BME280;61968;48.178;11.566;2023-07-13T08:37:43;96005.00;;;20.33;37.12
73671;BME280;61968;48.178;11.566;2023-07-13T08:40:11;96007.50;;;20.49;36.28
73671;BME280;61968;48.178;11.566;2023-07-13T08:42:42;96002.34;;;20.71;36.17
73671;BME280;61968;48.178;11.566;2023-07-13T08:45:20;96012.50;;;20.79;34.74
73671;BME280;61968;48.178;11.566;2023-07-13T08:47:51;96007.69;;;20.76;34.91
73671;BME280;61968;48.178;11.566;2023-07-13T08:50:23;96011.94;;;20.77;34.23
73671;BME280;61968;48.178;11.566;2023-07-13T08:52:51;96012.34;;;20.90;34.13
73671;BME280;61968;48.178;11.566;2023-07-13T08:55:23;96015.03;;;20.90;33.29
73671;BME280;61968;48.178;11.566;2023-07-13T08:57:56;96013.78;;;20.63;33.12
73671;BME280;61968;48.178;11.566;2023-07-13T09:00:38;96013.78;;;20.63;32.76
73671;BME280;61968;48.178;11.566;2023-07-13T09:03:15;96010.44;;;20.71;32.98
73671;BME280;61968;48.178;11.566;2023-07-13T09:05:49;96011.72;;;20.55;32.71
73671;BME280;61968;48.178;11.566;2023-07-13T09:08:32;96015.31;;;20.69;32.54
73671;BME280;61968;48.178;11.566;2023-07-13T09:11:04;96013.88;;;20.53;31.05
73671;BME280;61968;48.178;11.566;2023-07-13T09:13:43;96012.75;;;19.82;31.67
73671;BME280;61968;48.178;11.566;2023-07-13T09:16:16;96019.84;;;19.67;31.99
73671;BME280;61968;48.178;11.566;2023-07-13T09:18:45;96014.59;;;19.52;32.24
73671;BME280;61968;48.178;11.566;2023-07-13T09:21:15;96010.22;;;19.27;33.31
73671;BME280;61968;48.178;11.566;2023-07-13T09:23:42;96014.94;;;19.40;33.64
73671;BME280;61968;48.178;11.566;2023-07-13T09:26:13;96013.56;;;19.43;33.76
73671;BME280;61968;48.178;11.566;2023-07-13T09:28:43;96002.56;;;19.49;33.13
73671;BME280;61968;48.178;11.566;2023-07-13T09:31:14;96007.56;;;19.61;33.26
73671;BME280;61968;48.178;11.566;2023-07-13T09:33:42;96007.91;;;19.49;32.64
73671;BME280;61968;48.178;11.566;2023-07-13T09:36:19;96014.94;;;19.40;33.25
73671;BME280;61968;48.178;11.566;2023-07-13T09:38:48;96015.81;;;19.31;32.69
73671;BME280;61968;48.178;11.566;2023-07-13T09:41:19;96016.03;;;19.39;33.33
73671;BME280;61968;48.178;11.566;2023-07-13T09:44:08;96017.03;;;19.48;32.05
73671;BME280;61968;48.178;11.566;2023-07-13T09:46:36;96017.09;;;19.38;32.29
73671;BME280;61968;48.178;11.566;2023-07-13T09:49:04;96014.59;;;19.13;32.17
73671;BME280;61968;48.178;11.566;2023-07-13T09:51:31;96009.88;;;18.94;32.38
73671;BME280;61968;48.178;11.566;2023-07-13T09:53:57;96015.81;;;19.31;32.34
73671;BME280;61968;48.178;11.566;2023-07-13T09:56:27;96012.38;;;19.25;32.46
73671;BME280;61968;48.178;11.566;2023-07-13T09:58:54;96006.09;;;19.00;32.11
73671;BME280;61968;48.178;11.566;2023-07-13T10:01:32;96015.78;;;19.36;33.13
73671;BME280;61968;48.178;11.566;2023-07-13T10:03:59;96010.56;;;19.55;32.11
73671;BME280;61968;48.178;11.566;2023-07-13T10:06:27;96010.81;;;19.58;31.42
73671;BME280;61968;48.178;11.566;2023-07-13T10:08:56;96009.09;;;19.33;30.47
73671;BME280;61968;48.178;11.566;2023-07-13T10:11:26;96004.34;;;19.20;31.13
73671;BME280;61968;48.178;11.566;2023-07-13T10:13:55;96007.53;;;19.27;30.60
73671;BME280;61968;48.178;11.566;2023-07-13T10:16:23;96011.59;;;19.19;31.94
73671;BME280;61968;48.178;11.566;2023-07-13T10:18:54;96019.81;;;19.33;31.51
73671;BME280;61968;48.178;11.566;2023-07-13T10:21:23;96024.81;;;19.50;31.72
73671;BME280;61968;48.178;11.566;2023-07-13T10:23:57;96030.91;;;19.61;32.09
73671;BME280;61968;48.178;11.566;2023-07-13T10:26:27;96031.13;;;19.64;32.05
73671;BME280;61968;48.178;11.566;2023-07-13T10:28:57;96027.34;;;19.65;31.60
73671;BME280;61968;48.178;11.566;2023-07-13T10:31:25;96039.84;;;19.80;31.73
73671;BME280;61968;48.178;11.566;2023-07-13T10:33:52;96028.19;;;19.66;32.04
73671;BME280;61968;48.178;11.566;2023-07-13T10:36:28;96012.69;;;19.87;32.34
73671;BME280;61968;48.178;11.566;2023-07-13T10:38:59;96015.66;;;19.85;31.84
73671;BME280;61968;48.178;11.566;2023-07-13T10:41:27;96016.81;;;20.03;31.95
73671;BME280;61968;48.178;11.566;2023-07-13T10:43:56;96020.25;;;20.09;32.27
73671;BME280;61968;48.178;11.566;2023-07-13T10:46:25;96022.41;;;20.07;31.70
73671;BME280;61968;48.178;11.566;2023-07-13T10:48:56;96024.84;;;20.08;31.63
73671;BME280;61968;48.178;11.566;2023-07-13T10:51:24;96030.25;;;20.03;31.77
73671;BME280;61968;48.178;11.566;2023-07-13T10:54:11;96024.34;;;20.01;30.31
73671;BME280;61968;48.178;11.566;2023-07-13T10:56:40;96024.84;;;20.08;31.00
73671;BME280;61968;48.178;11.566;2023-07-13T10:59:11;96027.22;;;20.15;31.22
73671;BME280;61968;48.178;11.566;2023-07-13T11:01:45;96019.84;;;19.97;31.57
73671;BME280;61968;48.178;11.566;2023-07-13T11:04:19;96023.25;;;20.31;31.28
73671;BME280;61968;48.178;11.566;2023-07-13T11:06:48;96032.00;;;20.18;30.94
73671;BME280;61968;48.178;11.566;2023-07-13T11:09:32;96031.09;;;20.28;31.17
73671;BME280;61968;48.178;11.566;2023-07-13T11:11:59;96039.72;;;20.49;29.99
73671;BME280;61968;48.178;11.566;2023-07-13T11:14:29;96037.25;;;20.28;29.50
73671;BME280;61968;48.178;11.566;2023-07-13T11:16:57;96048.16;;;20.08;30.22
73671;BME280;61968;48.178;11.566;2023-07-13T11:19:38;96043.41;;;20.29;29.96
73671;BME280;61968;48.178;11.566;2023-07-13T11:22:14;96038.19;;;20.43;30.16
73671;BME280;61968;48.178;11.566;2023-07-13T11:24:51;96035.91;;;20.31;30.09
73671;BME280;61968;48.178;11.566;2023-07-13T11:27:27;96043.56;;;20.43;30.58
73671;BME280;61968;48.178;11.566;2023-07-13T11:30:09;96034.97;;;20.40;29.09
73671;BME280;61968;48.178;11.566;2023-07-13T11:32:35;96029.56;;;20.46;29.80
73671;BME280;61968;48.178;11.566;2023-07-13T11:35:02;96022.31;;;20.65;30.05
73671;BME280;61968;48.178;11.566;2023-07-13T11:37:30;96010.34;;;20.81;29.31
73671;BME280;61968;48.178;11.566;2023-07-13T11:39:58;96014.56;;;20.88;29.86
73671;BME280;61968;48.178;11.566;2023-07-13T11:42:25;96013.03;;;21.00;30.23
73671;BME280;61968;48.178;11.566;2023-07-13T11:44:52;96008.97;;;20.84;29.25
73671;BME280;61968;48.178;11.566;2023-07-13T11:47:21;96003.47;;;20.70;30.14
73671;BME280;61968;48.178;11.566;2023-07-13T11:49:50;96005.13;;;20.90;30.37
73671;BME280;61968;48.178;11.566;2023-07-13T11:52:19;96006.03;;;20.80;30.17
73671;BME280;61968;48.178;11.566;2023-07-13T11:54:49;96003.28;;;20.85;30.20
73671;BME280;61968;48.178;11.566;2023-07-13T11:57:25;96010.13;;;20.97;28.73
73671;BME280;61968;48.178;11.566;2023-07-13T11:59:54;95995.59;;;20.98;29.53
73671;BME280;61968;48.178;11.566;2023-07-13T12:02:28;95983.72;;;20.99;28.88
73671;BME280;61968;48.178;11.566;2023-07-13T12:04:56;95995.28;;;21.18;28.58
73671;BME280;61968;48.178;11.566;2023-07-13T12:07:23;95995.81;;;21.20;28.76
73671;BME280;61968;48.178;11.566;2023-07-13T12:09:49;95994.06;;;21.29;29.39
73671;BME280;61968;48.178;11.566;2023-07-13T12:12:18;95993.97;;;21.35;29.44
73671;BME280;61968;48.178;11.566;2023-07-13T12:14:46;95992.81;;;21.41;29.35
73671;BME280;61968;48.178;11.566;2023-07-13T12:17:15;95983.19;;;21.35;29.64
73671;BME280;61968;48.178;11.566;2023-07-13T12:19:42;95987.75;;;21.20;30.15
73671;BME280;61968;48.178;11.566;2023-07-13T12:22:11;95978.72;;;21.30;29.81
73671;BME280;61968;48.178;11.566;2023-07-13T12:24:40;95978.50;;;21.07;29.17
73671;BME280;61968;48.178;11.566;2023-07-13T12:27:19;95979.69;;;21.20;29.21
73671;BME280;61968;48.178;11.566;2023-07-13T12:29:51;95978.50;;;21.07;29.77
73671;BME280;61968;48.178;11.566;2023-07-13T12:32:20;95971.59;;;21.01;30.29
73671;BME280;61968;48.178;11.566;2023-07-13T12:34:53;95974.31;;;21.20;30.27
73671;BME280;61968;48.178;11.566;2023-07-13T12:37:19;95985.31;;;21.38;30.19
73671;BME280;61968;48.178;11.566;2023-07-13T12:39:47;95981.31;;;21.35;29.81
73671;BME280;61968;48.178;11.566;2023-07-13T12:42:19;95977.66;;;21.12;29.53
73671;BME280;61968;48.178;11.566;2023-07-13T12:44:51;95980.28;;;20.74;29.42
73671;BME280;61968;48.178;11.566;2023-07-13T12:47:20;95971.41;;;20.98;29.99
73671;BME280;61968;48.178;11.566;2023-07-13T12:49:48;95965.38;;;20.87;29.48
73671;BME280;61968;48.178;11.566;2023-07-13T12:52:19;95970.84;;;20.77;28.86
73671;BME280;61968;48.178;11.566;2023-07-13T12:54:53;95963.84;;;21.00;29.45
73671;BME280;61968;48.178;11.566;2023-07-13T12:57:23;95956.28;;;21.21;28.27